Time;durP1;ratioP1;P1;durP2;ratioP2;P2;SDS_P1;SDS_P2;PMS_P1;PMS_P2;Temp;Humidity;BMP_temperature;BMP_pressure;BME280_temperature;BME280_humidity;BME280_pressure;Samples;Min_cycle;Max_cycle;Signal;HPM_P1;HPM_P2
2021/01/20 00:02:01;;;;;;;1.20;1.10;;;7.50;67.60;;;;;;5047631;28;20108;-72
2021/01/20 00:04:27;;;;;;;2.00;1.40;;;7.50;67.50;;;;;;5054337;28;20027;-74
2021/01/20 00:06:52;;;;;;;2.00;1.35;;;7.50;67.50;;;;;;5054134;28;20071;-75
2021/01/20 00:09:18;;;;;;;2.65;1.90;;;7.60;67.60;;;;;;5054178;28;20021;-72
2021/01/20 00:11:44;;;;;;;5.55;2.22;;;7.60;67.60;;;;;;5053072;28;20095;-73
2021/01/20 00:14:13;;;;;;;2.05;1.67;;;7.60;67.30;;;;;;5037972;28;20017;-73
2021/01/20 00:16:40;;;;;;;1.70;1.52;;;7.60;67.20;;;;;;5046926;28;20471;-73
2021/01/20 00:19:06;;;;;;;2.72;2.10;;;7.50;66.80;;;;;;5053836;28;20080;-74
2021/01/20 00:21:32;;;;;;;2.40;1.80;;;7.50;66.70;;;;;;5053932;28;20017;-74
2021/01/20 00:23:59;;;;;;;2.40;2.05;;;7.50;66.60;;;;;;5033939;28;20027;-75
2021/01/20 00:26:24;;;;;;;3.55;2.50;;;7.40;66.50;;;;;;5050586;28;20071;-75
2021/01/20 00:28:51;;;;;;;3.83;2.65;;;7.40;66.60;;;;;;5053732;28;20021;-75
2021/01/20 00:31:17;;;;;;;2.97;2.40;;;7.40;66.70;;;;;;5053768;28;20028;-73
2021/01/20 00:33:43;;;;;;;3.00;2.28;;;7.40;66.80;;;;;;5053600;28;20029;-74
2021/01/20 00:36:09;;;;;;;2.30;2.05;;;7.30;66.80;;;;;;5035822;28;20028;-73
2021/01/20 00:38:35;;;;;;;1.60;1.50;;;7.30;66.80;;;;;;5053671;28;20017;-74
2021/01/20 00:41:01;;;;;;;4.32;2.78;;;7.30;66.80;;;;;;5053569;28;20017;-74
2021/01/20 00:43:27;;;;;;;2.72;1.95;;;7.20;66.70;;;;;;5053425;28;20466;-73
2021/01/20 00:45:53;;;;;;;4.90;2.35;;;7.20;66.60;;;;;;5053421;28;20028;-74
2021/01/20 00:48:18;;;;;;;3.60;2.70;;;7.20;66.60;;;;;;5053537;28;20017;-74
2021/01/20 00:50:44;;;;;;;4.45;2.80;;;7.10;66.70;;;;;;5053739;28;20032;-73
2021/01/20 00:53:10;;;;;;;4.32;3.20;;;7.10;66.80;;;;;;5053606;28;20075;-72
2021/01/20 00:55:36;;;;;;;5.25;2.75;;;7.00;66.80;;;;;;5052417;28;20055;-74
2021/01/20 00:58:03;;;;;;;3.92;2.30;;;7.00;66.90;;;;;;5052864;28;20021;-72
2021/01/20 01:00:30;;;;;;;3.90;2.80;;;6.90;66.90;;;;;;5050998;28;20032;-75
2021/01/20 01:02:55;;;;;;;4.90;2.50;;;6.90;67.00;;;;;;5051902;28;20017;-72
2021/01/20 01:05:21;;;;;;;3.63;2.90;;;6.90;67.00;;;;;;5050862;28;20039;-74
2021/01/20 01:07:47;;;;;;;4.03;3.45;;;6.90;67.00;;;;;;5061488;28;20056;-74
2021/01/20 01:10:13;;;;;;;4.50;3.40;;;6.80;66.90;;;;;;5051888;28;20052;-74
2021/01/20 01:12:39;;;;;;;3.97;3.10;;;6.80;67.10;;;;;;5051872;28;20076;-74
2021/01/20 01:15:06;;;;;;;3.92;2.75;;;6.70;66.80;;;;;;5033998;28;20112;-74
2021/01/20 01:17:32;;;;;;;7.25;3.33;;;6.70;66.80;;;;;;5051717;28;20028;-73
2021/01/20 01:19:58;;;;;;;3.42;2.80;;;6.70;66.70;;;;;;5043962;28;20057;-73
2021/01/20 01:22:24;;;;;;;3.45;2.47;;;6.60;66.60;;;;;;5035764;28;20024;-74
2021/01/20 01:24:50;;;;;;;3.05;2.10;;;6.60;66.60;;;;;;5018759;28;20090;-73
2021/01/20 01:27:16;;;;;;;2.63;2.30;;;6.60;66.40;;;;;;5035457;28;20064;-75
2021/01/20 01:29:42;;;;;;;3.28;2.17;;;6.60;66.30;;;;;;5019716;28;20018;-74
2021/01/20 01:32:08;;;;;;;3.78;1.90;;;6.60;66.20;;;;;;5033196;28;20022;-73
2021/01/20 01:34:34;;;;;;;3.08;1.80;;;6.50;66.00;;;;;;5028724;28;20033;-74
2021/01/20 01:36:59;;;;;;;2.42;1.95;;;6.50;66.00;;;;;;5032897;28;20475;-73
2021/01/20 01:39:25;;;;;;;2.88;2.00;;;6.40;65.90;;;;;;5037183;28;20509;-72
2021/01/20 01:41:51;;;;;;;2.45;1.70;;;6.40;65.90;;;;;;5038076;28;20075;-74
2021/01/20 01:44:18;;;;;;;2.97;2.10;;;6.40;65.90;;;;;;5038510;28;20022;-73
2021/01/20 01:46:44;;;;;;;3.38;2.80;;;6.30;65.80;;;;;;5038438;28;20025;-72
2021/01/20 01:49:11;;;;;;;3.42;2.95;;;6.20;65.80;;;;;;5038495;28;20034;-73
2021/01/20 01:51:37;;;;;;;3.15;2.72;;;6.20;65.80;;;;;;5018902;28;20033;-73
2021/01/20 01:54:03;;;;;;;3.53;2.78;;;6.20;65.90;;;;;;5033570;28;20026;-72
2021/01/20 01:56:28;;;;;;;4.32;3.17;;;6.10;65.90;;;;;;5037052;28;20119;-73
2021/01/20 01:58:55;;;;;;;5.03;3.50;;;6.10;65.90;;;;;;5025852;28;20475;-73
2021/01/20 02:01:21;;;;;;;13.80;6.95;;;6.10;66.00;;;;;;5034770;28;20025;-72
2021/01/20 02:03:51;;;;;;;15.57;8.85;;;6.00;65.90;;;;;;5037884;28;20034;-75
2021/01/20 02:06:17;;;;;;;8.80;6.03;;;6.00;65.90;;;;;;5038287;28;20033;-72
2021/01/20 02:08:52;;;;;;;7.25;5.15;;;6.00;65.90;;;;;;5038348;28;20468;-75
2021/01/20 02:12:05;;;;;;;7.05;5.20;;;5.90;65.90;;;;;;5020158;28;20017;-75
2021/01/20 02:15:01;;;;;;;5.68;3.75;;;5.90;66.00;;;;;;5011452;28;20026;-73
2021/01/20 02:17:37;;;;;;;5.53;4.32;;;5.80;65.90;;;;;;5034288;28;20479;-73
2021/01/20 02:20:15;;;;;;;4.38;3.58;;;5.80;65.90;;;;;;5040178;28;20079;-72
2021/01/20 02:22:50;;;;;;;6.13;4.28;;;5.80;65.90;;;;;;5043234;28;20020;-73
2021/01/20 02:25:36;;;;;;;7.18;4.30;;;5.70;66.00;;;;;;5044288;28;20021;-74
2021/01/20 02:28:18;;;;;;;6.53;4.10;;;5.70;66.10;;;;;;5048265;28;20021;-72
2021/01/20 02:30:46;;;;;;;5.45;4.13;;;5.70;66.10;;;;;;5043634;28;20116;-72
2021/01/20 02:33:23;;;;;;;8.00;5.18;;;5.70;66.20;;;;;;5044266;28;20021;-72
2021/01/20 02:35:59;;;;;;;10.13;6.45;;;5.60;66.50;;;;;;5033788;28;20377;-73
2021/01/20 02:38:26;;;;;;;16.38;7.97;;;5.70;67.00;;;;;;5031745;28;20088;-72
2021/01/20 02:40:52;;;;;;;10.52;7.13;;;5.70;67.30;;;;;;5036301;28;20029;-72
2021/01/20 02:43:25;;;;;;;16.50;8.45;;;5.70;67.50;;;;;;5036146;28;20033;-74
2021/01/20 02:45:50;;;;;;;22.90;10.98;;;5.80;67.90;;;;;;5028144;28;20021;-73
2021/01/20 02:48:17;;;;;;;23.85;11.95;;;5.80;67.90;;;;;;5036401;28;20029;-74
2021/01/20 02:50:43;;;;;;;22.15;10.57;;;5.90;68.20;;;;;;5036393;28;20041;-73
2021/01/20 02:53:14;;;;;;;20.13;10.82;;;6.00;68.30;;;;;;5036325;28;20026;-72
2021/01/20 02:55:59;;;;;;;21.25;11.27;;;6.10;68.30;;;;;;5036062;28;20044;-73
2021/01/20 02:58:31;;;;;;;20.58;10.30;;;6.10;68.20;;;;;;5036622;28;20479;-72
2021/01/20 03:01:00;;;;;;;17.15;9.65;;;6.20;68.20;;;;;;5054899;28;20029;-73
2021/01/20 03:03:26;;;;;;;12.65;7.93;;;6.30;68.30;;;;;;5055148;28;20032;-73
2021/01/20 03:05:53;;;;;;;15.05;8.23;;;6.40;68.50;;;;;;5055409;28;20544;-74
2021/01/20 03:08:19;;;;;;;19.42;10.07;;;6.40;68.40;;;;;;5054212;28;20389;-73
2021/01/20 03:10:45;;;;;;;17.92;9.77;;;6.50;68.20;;;;;;5055633;28;20021;-74
2021/01/20 03:13:12;;;;;;;21.38;11.45;;;6.50;68.70;;;;;;5055601;28;20028;-74
2021/01/20 03:15:40;;;;;;;26.90;12.55;;;6.60;67.90;;;;;;5055600;28;20052;-74
2021/01/20 03:18:07;;;;;;;18.73;11.02;;;6.60;67.80;;;;;;5055815;28;20025;-75
2021/01/20 03:20:33;;;;;;;14.35;9.35;;;6.70;67.80;;;;;;5055298;28;20209;-74
2021/01/20 03:22:59;;;;;;;15.85;9.35;;;6.70;67.80;;;;;;5055507;28;20036;-74
2021/01/20 03:25:28;;;;;;;13.85;9.25;;;6.80;68.80;;;;;;5055373;28;20025;-76
2021/01/20 03:27:54;;;;;;;15.38;8.52;;;6.80;68.00;;;;;;5055602;28;20028;-74
2021/01/20 03:30:20;;;;;;;14.65;10.02;;;6.90;67.80;;;;;;5055230;28;20070;-73
2021/01/20 03:32:47;;;;;;;18.85;11.70;;;6.90;67.60;;;;;;5037443;28;20386;-74
2021/01/20 03:35:13;;;;;;;15.25;9.95;;;6.90;67.40;;;;;;5055225;28;20104;-74
2021/01/20 03:37:39;;;;;;;19.30;9.77;;;6.90;67.30;;;;;;5054380;28;20032;-72
2021/01/20 03:40:08;;;;;;;18.98;9.40;;;6.90;67.20;;;;;;5055365;28;20048;-75
2021/01/20 03:42:34;;;;;;;14.75;9.23;;;7.00;67.30;;;;;;5055049;28;20078;-73
2021/01/20 03:45:01;;;;;;;24.27;12.25;;;7.00;67.40;;;;;;5055014;28;20039;-73
2021/01/20 03:47:26;;;;;;;26.65;14.68;;;7.00;67.40;;;;;;5054860;28;20048;-73
2021/01/20 03:49:52;;;;;;;55.15;19.77;;;7.00;67.30;;;;;;5055192;28;20399;-74
2021/01/20 03:52:18;;;;;;;46.80;19.90;;;7.00;67.20;;;;;;5054890;28;20025;-74
2021/01/20 03:54:44;;;;;;;52.15;21.83;;;7.00;67.20;;;;;;5055076;28;20037;-74
2021/01/20 03:57:09;;;;;;;62.15;24.55;;;7.10;67.30;;;;;;5054030;28;20056;-74
2021/01/20 03:59:35;;;;;;;47.15;20.52;;;7.10;67.30;;;;;;5054951;28;20397;-73
2021/01/20 04:02:05;;;;;;;67.63;25.65;;;7.10;67.30;;;;;;5053274;28;20025;-74
2021/01/20 04:04:32;;;;;;;64.15;26.60;;;7.10;67.50;;;;;;5054640;28;20121;-75
2021/01/20 04:07:00;;;;;;;76.88;28.83;;;7.20;67.40;;;;;;5054580;28;20032;-74
2021/01/20 04:09:26;;;;;;;73.05;28.20;;;7.20;67.40;;;;;;5054534;28;20021;-74
2021/01/20 04:11:52;;;;;;;58.85;24.48;;;7.20;67.40;;;;;;5054494;28;20355;-75
2021/01/20 04:14:18;;;;;;;54.00;23.42;;;7.20;67.30;;;;;;5054471;28;20470;-74
2021/01/20 04:16:44;;;;;;;67.63;26.17;;;7.20;67.40;;;;;;5054693;28;20029;-74
2021/01/20 04:19:09;;;;;;;48.90;22.30;;;7.20;67.40;;;;;;5054136;28;20394;-74
2021/01/20 04:21:35;;;;;;;84.30;28.10;;;7.20;67.40;;;;;;5054354;28;20493;-75
2021/01/20 04:24:01;;;;;;;65.88;25.65;;;7.20;67.40;;;;;;5054185;28;20106;-74
2021/01/20 04:26:26;;;;;;;62.50;27.00;;;7.20;67.30;;;;;;5053650;28;20029;-72
2021/01/20 04:28:52;;;;;;;61.53;25.25;;;7.20;67.20;;;;;;5052901;28;20025;-74
2021/01/20 04:31:18;;;;;;;44.03;18.25;;;7.20;67.20;;;;;;5029836;28;20026;-72
2021/01/20 04:33:43;;;;;;;38.42;18.20;;;7.20;67.10;;;;;;5036623;28;20029;-73
2021/01/20 04:36:10;;;;;;;62.55;25.05;;;7.20;66.90;;;;;;5054032;28;20025;-74
2021/01/20 04:38:35;;;;;;;44.17;18.55;;;7.20;66.90;;;;;;5054172;28;20100;-74
2021/01/20 04:41:01;;;;;;;69.78;25.10;;;7.20;66.90;;;;;;5053949;28;20100;-73
2021/01/20 04:43:27;;;;;;;55.55;20.45;;;7.20;66.90;;;;;;5053733;28;20386;-72
2021/01/20 04:45:53;;;;;;;82.75;26.50;;;7.20;66.90;;;;;;5053845;28;20480;-74
2021/01/20 04:48:20;;;;;;;81.38;27.48;;;7.20;67.10;;;;;;5054103;28;20539;-72
2021/01/20 04:50:50;;;;;;;64.57;21.00;;;7.10;67.10;;;;;;5053724;28;20155;-71
2021/01/20 04:53:19;;;;;;;52.95;23.10;;;7.20;67.20;;;;;;5054152;28;20028;-73
2021/01/20 04:55:46;;;;;;;71.53;25.60;;;7.20;67.20;;;;;;5053942;28;20040;-72
2021/01/20 04:58:13;;;;;;;80.95;25.33;;;7.10;67.10;;;;;;5051270;28;20033;-75
2021/01/20 05:00:40;;;;;;;68.35;25.90;;;7.20;67.10;;;;;;5053351;28;20029;-72
2021/01/20 05:03:06;;;;;;;47.55;21.33;;;7.20;67.00;;;;;;5052648;28;20032;-73
2021/01/20 05:05:33;;;;;;;65.68;24.88;;;7.10;67.00;;;;;;5052149;28;20386;-72
2021/01/20 05:08:01;;;;;;;52.15;23.75;;;7.10;66.90;;;;;;5052737;28;20021;-74
2021/01/20 05:10:26;;;;;;;59.53;24.05;;;7.10;66.80;;;;;;5054006;28;20021;-73
2021/01/20 05:12:52;;;;;;;81.95;30.08;;;7.10;66.80;;;;;;5053382;28;20079;-74
2021/01/20 05:15:27;;;;;;;66.47;26.90;;;7.10;66.90;;;;;;5052151;28;20478;-73
2021/01/20 05:17:56;;;;;;;62.08;25.17;;;7.10;66.90;;;;;;5053641;28;20029;-75
2021/01/20 05:20:30;;;;;;;76.32;28.25;;;7.10;67.00;;;;;;5051912;28;20049;-72
2021/01/20 05:23:00;;;;;;;77.40;28.02;;;7.10;67.20;;;;;;5053502;28;20025;-74
2021/01/20 05:25:27;;;;;;;68.32;28.80;;;7.10;67.10;;;;;;5053856;28;20505;-72
2021/01/20 05:27:53;;;;;;;56.65;24.15;;;7.10;67.10;;;;;;5053589;28;20582;-72
2021/01/20 05:30:19;;;;;;;66.22;25.08;;;7.10;67.10;;;;;;5051941;28;20079;-73
2021/01/20 05:32:59;;;;;;;54.92;21.77;;;7.10;67.00;;;;;;5053507;28;20035;-74
2021/01/20 05:35:25;;;;;;;63.58;24.10;;;7.10;66.90;;;;;;5034857;28;20083;-73
2021/01/20 05:37:50;;;;;;;52.22;23.05;;;7.10;66.90;;;;;;5053426;28;20421;-73
2021/01/20 05:40:18;;;;;;;78.97;27.88;;;7.10;66.90;;;;;;5051485;28;20403;-73
2021/01/20 05:42:50;;;;;;;70.40;26.88;;;7.10;66.80;;;;;;5053038;28;20032;-74
2021/01/20 05:45:23;;;;;;;52.78;23.33;;;7.10;66.50;;;;;;5053334;28;20029;-72
2021/01/20 05:48:09;;;;;;;60.47;25.42;;;7.10;66.40;;;;;;5023683;28;20105;-72
2021/01/20 05:50:37;;;;;;;63.53;25.13;;;7.00;66.40;;;;;;5033427;28;20030;-72
2021/01/20 05:53:11;;;;;;;48.53;19.55;;;7.00;66.30;;;;;;5051781;28;20029;-72
2021/01/20 05:55:38;;;;;;;60.83;22.20;;;7.00;66.40;;;;;;5053308;28;20535;-72
2021/01/20 05:58:07;;;;;;;45.58;20.90;;;7.00;66.40;;;;;;5053206;28;20036;-74
2021/01/20 06:00:33;;;;;;;62.03;22.83;;;7.00;66.40;;;;;;5052935;28;20025;-72
2021/01/20 06:02:59;;;;;;;45.63;22.80;;;6.90;66.30;;;;;;5035041;28;20436;-74
2021/01/20 06:05:26;;;;;;;60.40;23.42;;;6.90;66.30;;;;;;5045525;28;20017;-74
2021/01/20 06:07:53;;;;;;;62.15;23.52;;;6.90;66.40;;;;;;5052905;28;20021;-72
2021/01/20 06:10:20;;;;;;;59.10;22.55;;;6.80;66.40;;;;;;5036503;28;20104;-72
2021/01/20 06:12:48;;;;;;;62.50;18.70;;;6.80;66.50;;;;;;5056731;28;20443;-72
2021/01/20 06:15:14;;;;;;;70.40;22.42;;;6.80;66.70;;;;;;5056697;28;20099;-73
2021/01/20 06:17:41;;;;;;;46.65;18.63;;;6.80;66.80;;;;;;5056779;28;20025;-74
2021/01/20 06:20:09;;;;;;;36.83;18.25;;;6.80;66.80;;;;;;5056356;28;20120;-73
2021/01/20 06:22:50;;;;;;;54.60;19.55;;;6.80;66.90;;;;;;5056472;28;20029;-75
2021/01/20 06:25:32;;;;;;;89.45;22.98;;;6.80;66.90;;;;;;5056793;28;20377;-72
2021/01/20 06:28:08;;;;;;;63.80;22.63;;;6.70;66.90;;;;;;5056441;28;20017;-73
2021/01/20 06:30:39;;;;;;;46.60;19.50;;;6.70;66.70;;;;;;5038468;28;20482;-71
2021/01/20 06:33:09;;;;;;;86.03;22.48;;;6.70;66.60;;;;;;5038374;28;20029;-74
2021/01/20 06:35:46;;;;;;;47.45;21.77;;;6.70;66.70;;;;;;5056016;28;20028;-71
2021/01/20 06:38:27;;;;;;;40.72;17.88;;;6.60;66.40;;;;;;5056611;28;20466;-73
2021/01/20 06:40:57;;;;;;;52.28;18.23;;;6.60;66.50;;;;;;5056143;28;20497;-72
2021/01/20 06:43:38;;;;;;;36.45;16.83;;;6.50;66.40;;;;;;5056255;28;20102;-72
2021/01/20 06:46:13;;;;;;;32.22;17.00;;;6.50;66.30;;;;;;5056383;28;20017;-72
2021/01/20 06:48:59;;;;;;;43.72;17.95;;;6.50;66.30;;;;;;5056021;28;20017;-73
2021/01/20 06:51:29;;;;;;;50.45;19.70;;;6.40;66.40;;;;;;5037405;28;20131;-73
2021/01/20 06:54:05;;;;;;;47.75;16.33;;;6.40;66.40;;;;;;5051425;28;20022;-73
2021/01/20 06:56:45;;;;;;;33.33;16.30;;;6.40;66.50;;;;;;5053821;28;20028;-72
2021/01/20 06:59:20;;;;;;;48.97;16.25;;;6.40;66.50;;;;;;5051330;28;20082;-74
2021/01/20 07:02:04;;;;;;;40.90;14.35;;;6.30;66.50;;;;;;5055579;28;20032;-72
2021/01/20 07:04:39;;;;;;;41.38;13.02;;;6.30;66.50;;;;;;5055004;28;20021;-72
2021/01/20 07:07:09;;;;;;;25.25;12.55;;;6.30;66.60;;;;;;5055733;28;20420;-73
2021/01/20 07:09:57;;;;;;;24.83;12.40;;;6.20;66.70;;;;;;5055655;28;20024;-72
2021/01/20 07:12:25;;;;;;;53.97;16.42;;;6.20;66.80;;;;;;5048968;28;20075;-71
2021/01/20 07:14:56;;;;;;;31.52;14.48;;;6.20;66.80;;;;;;5037351;28;20029;-71
2021/01/20 07:17:22;;;;;;;26.15;12.45;;;6.20;66.80;;;;;;5055586;28;20086;-74
2021/01/20 07:19:49;;;;;;;30.10;12.32;;;6.20;66.80;;;;;;5055296;28;20101;-73
2021/01/20 07:22:17;;;;;;;25.63;11.50;;;6.20;66.90;;;;;;5054811;28;20063;-72
2021/01/20 07:24:43;;;;;;;38.92;14.38;;;6.20;66.90;;;;;;5055344;28;20184;-72
2021/01/20 07:27:13;;;;;;;33.50;14.55;;;6.10;66.80;;;;;;5055562;28;20032;-72
2021/01/20 07:29:42;;;;;;;42.50;15.32;;;6.20;67.00;;;;;;5055161;28;20020;-72
2021/01/20 07:32:08;;;;;;;70.93;14.93;;;6.20;67.10;;;;;;5049719;28;20036;-71
2021/01/20 07:34:39;;;;;;;37.08;15.50;;;6.20;67.30;;;;;;5048924;28;20029;-72
2021/01/20 07:37:10;;;;;;;32.10;14.95;;;6.20;67.40;;;;;;5036048;28;20356;-71
2021/01/20 07:39:36;;;;;;;48.25;16.13;;;6.20;67.50;;;;;;5051054;28;20021;-73
2021/01/20 07:42:05;;;;;;;37.20;15.00;;;6.20;67.60;;;;;;5036841;28;20025;-72
2021/01/20 07:44:31;;;;;;;35.22;15.82;;;6.20;67.70;;;;;;5053270;28;20044;-73
2021/01/20 07:47:02;;;;;;;43.67;16.88;;;6.20;67.70;;;;;;5054626;28;20025;-73
2021/01/20 07:49:30;;;;;;;75.00;18.73;;;6.30;67.80;;;;;;5055188;28;20021;-72
2021/01/20 07:52:09;;;;;;;29.58;14.73;;;6.30;67.70;;;;;;5054928;28;20131;-73
2021/01/20 07:54:45;;;;;;;39.65;13.95;;;6.30;67.70;;;;;;5052759;28;20135;-71
2021/01/20 07:57:21;;;;;;;45.35;15.50;;;6.30;67.80;;;;;;5041916;28;20021;-72
2021/01/20 08:00:08;;;;;;;36.03;14.55;;;6.40;67.90;;;;;;5054771;28;20022;-73
2021/01/20 08:02:45;;;;;;;34.05;12.65;;;6.40;67.90;;;;;;5050601;28;20492;-72
2021/01/20 08:05:11;;;;;;;34.65;14.10;;;6.50;68.80;;;;;;5074604;28;20016;-72
2021/01/20 08:07:37;;;;;;;45.20;13.85;;;6.60;68.10;;;;;;5060511;28;20107;-73
2021/01/20 08:10:03;;;;;;;26.42;12.40;;;6.60;68.20;;;;;;5054480;28;20092;-73
2021/01/20 08:12:31;;;;;;;22.98;12.00;;;6.70;68.10;;;;;;5054537;28;20386;-71
2021/01/20 08:14:57;;;;;;;22.90;11.50;;;6.70;68.10;;;;;;5054454;28;20170;-71
2021/01/20 08:17:24;;;;;;;25.17;12.00;;;6.80;68.20;;;;;;5054311;28;20033;-72
2021/01/20 08:19:53;;;;;;;24.25;11.80;;;6.90;68.10;;;;;;5046009;28;20132;-71
2021/01/20 08:22:20;;;;;;;28.73;14.48;;;6.90;68.00;;;;;;5049799;28;20033;-72
2021/01/20 08:24:50;;;;;;;40.72;13.77;;;7.00;68.20;;;;;;5054231;28;20055;-72
2021/01/20 08:27:29;;;;;;;35.78;14.50;;;7.10;67.90;;;;;;5043499;28;20083;-73
2021/01/20 08:29:57;;;;;;;36.35;13.02;;;7.10;67.50;;;;;;5046948;28;20024;-71
2021/01/20 08:32:23;;;;;;;41.13;16.60;;;7.20;67.20;;;;;;5053495;28;20039;-71
2021/01/20 08:34:51;;;;;;;44.25;16.35;;;7.20;66.80;;;;;;5036184;28;20384;-70
2021/01/20 08:37:33;;;;;;;32.45;13.40;;;7.30;66.70;;;;;;5024065;28;20094;-72
2021/01/20 08:40:00;;;;;;;40.47;16.25;;;7.30;66.80;;;;;;5053596;28;20028;-71
2021/01/20 08:42:32;;;;;;;33.72;14.10;;;7.40;66.70;;;;;;5054046;28;20398;-71
2021/01/20 08:45:16;;;;;;;34.65;13.63;;;7.40;66.50;;;;;;5054103;28;20021;-72
2021/01/20 08:47:47;;;;;;;46.78;19.67;;;7.40;66.70;;;;;;5053767;28;20067;-70
2021/01/20 08:50:39;;;;;;;33.80;15.23;;;7.40;66.30;;;;;;5035738;28;20033;-72
2021/01/20 08:53:11;;;;;;;38.22;15.85;;;7.50;66.00;;;;;;5051679;28;20035;-72
2021/01/20 08:55:49;;;;;;;31.63;14.35;;;7.50;66.00;;;;;;5043086;28;20028;-72
2021/01/20 08:58:33;;;;;;;33.85;12.73;;;7.60;65.90;;;;;;5034982;28;20021;-71
2021/01/20 09:01:22;;;;;;;;;;;7.60;65.70;;;;;;5054260;28;20036;-71
2021/01/20 09:03:59;;;;;;;50.63;15.70;;;7.70;65.90;;;;;;5053448;28;19914;-72
2021/01/20 09:06:26;;;;;;;49.72;17.88;;;7.80;65.40;;;;;;5048056;28;20024;-72
2021/01/20 09:08:53;;;;;;;33.83;14.68;;;7.80;65.10;;;;;;5048745;28;20021;-71
2021/01/20 09:11:19;;;;;;;31.98;11.98;;;7.80;65.50;;;;;;5019664;28;20112;-72
2021/01/20 09:13:45;;;;;;;46.10;16.88;;;7.90;65.80;;;;;;5053099;28;20105;-71
2021/01/20 09:16:11;;;;;;;66.20;23.50;;;7.90;66.00;;;;;;5049666;28;20128;-71
2021/01/20 09:18:37;;;;;;;69.32;24.63;;;8.00;66.10;;;;;;5030983;28;20080;-70
2021/01/20 09:21:04;;;;;;;67.18;25.13;;;8.10;66.20;;;;;;5026945;28;20168;-71
2021/01/20 09:23:30;;;;;;;89.38;32.70;;;8.10;66.10;;;;;;5032028;28;20029;-71
2021/01/20 09:25:56;;;;;;;90.22;35.30;;;8.20;66.00;;;;;;5033311;28;20017;-71
2021/01/20 09:28:22;;;;;;;102.75;32.45;;;8.20;65.70;;;;;;5045352;28;20425;-73
2021/01/20 09:30:48;;;;;;;97.65;32.30;;;8.30;65.50;;;;;;5053155;28;20017;-72
2021/01/20 09:33:15;;;;;;;75.45;26.02;;;8.30;65.40;;;;;;5027867;28;20026;-72
2021/01/20 09:35:41;;;;;;;73.90;23.75;;;8.40;65.40;;;;;;5051929;28;20025;-72
2021/01/20 09:38:07;;;;;;;84.38;24.02;;;8.40;65.10;;;;;;5048210;28;20028;-72
2021/01/20 09:40:34;;;;;;;92.75;28.13;;;8.40;65.00;;;;;;5033174;28;20027;-72
2021/01/20 09:42:59;;;;;;;98.20;35.80;;;8.50;65.10;;;;;;5033290;28;20076;-71
2021/01/20 09:45:27;;;;;;;70.38;29.15;;;8.50;64.70;;;;;;5036659;28;20026;-72
2021/01/20 09:47:55;;;;;;;72.07;25.10;;;8.50;64.40;;;;;;5037098;28;20501;-72
2021/01/20 09:50:21;;;;;;;66.75;25.48;;;8.50;64.70;;;;;;5050965;28;20151;-71
2021/01/20 09:52:47;;;;;;;71.18;25.00;;;8.60;64.90;;;;;;5057079;28;20025;-72
2021/01/20 09:55:15;;;;;;;68.45;29.15;;;8.60;65.00;;;;;;5056865;28;20028;-72
2021/01/20 09:57:41;;;;;;;77.68;32.97;;;8.70;65.40;;;;;;5055363;28;20072;-71
2021/01/20 10:00:08;;;;;;;77.25;33.40;;;8.80;65.80;;;;;;5046857;28;20025;-72
2021/01/20 10:02:34;;;;;;;75.50;31.13;;;8.90;65.70;;;;;;5034931;28;20032;-71
2021/01/20 10:05:00;;;;;;;60.85;24.95;;;9.00;66.00;;;;;;5049036;28;20025;-71
2021/01/20 10:07:26;;;;;;;67.55;29.13;;;9.10;65.70;;;;;;5049255;28;20032;-71
2021/01/20 10:09:52;;;;;;;75.18;29.77;;;9.20;65.50;;;;;;5050129;28;20018;-71
2021/01/20 10:12:20;;;;;;;65.03;27.98;;;9.30;65.10;;;;;;5048898;28;20028;-71
2021/01/20 10:14:47;;;;;;;61.05;25.35;;;9.40;65.00;;;;;;5058544;28;20028;-71
2021/01/20 10:17:13;;;;;;;55.00;23.20;;;9.40;64.90;;;;;;5043819;28;20108;-71
2021/01/20 10:19:39;;;;;;;55.50;24.17;;;9.50;64.90;;;;;;5049667;28;20041;-71
2021/01/20 10:22:05;;;;;;;57.78;24.38;;;9.60;63.90;;;;;;5048225;28;20417;-72
2021/01/20 10:24:31;;;;;;;53.60;24.38;;;9.70;63.90;;;;;;5037873;28;20042;-71
2021/01/20 10:26:57;;;;;;;72.05;28.08;;;9.70;63.40;;;;;;5056165;28;20506;-71
2021/01/20 10:29:25;;;;;;;56.97;26.48;;;9.70;62.40;;;;;;5056096;28;20386;-71
2021/01/20 10:31:50;;;;;;;57.50;25.45;;;9.80;62.10;;;;;;5055263;28;20044;-72
2021/01/20 10:34:16;;;;;;;68.35;26.95;;;9.80;62.10;;;;;;5048057;28;20062;-72
2021/01/20 10:36:42;;;;;;;74.20;28.70;;;9.80;61.70;;;;;;5037005;28;20033;-71
2021/01/20 10:39:09;;;;;;;66.13;29.27;;;9.80;61.60;;;;;;5038142;28;20029;-71
2021/01/20 10:41:36;;;;;;;78.22;32.25;;;9.80;61.30;;;;;;5050007;28;20035;-72
2021/01/20 10:44:03;;;;;;;62.13;29.02;;;9.80;60.80;;;;;;5052067;28;20028;-72
2021/01/20 10:46:29;;;;;;;53.42;24.48;;;9.80;60.60;;;;;;5051399;28;20021;-71
2021/01/20 10:48:57;;;;;;;50.97;23.25;;;9.80;60.90;;;;;;5030329;28;20390;-71
2021/01/20 10:51:24;;;;;;;49.17;20.98;;;9.80;61.60;;;;;;5055988;28;20493;-71
2021/01/20 10:53:50;;;;;;;44.55;19.42;;;9.80;61.70;;;;;;5068047;28;20030;-71
2021/01/20 10:56:17;;;;;;;48.40;21.52;;;9.80;61.10;;;;;;5075048;28;20028;-71
2021/01/20 10:58:43;;;;;;;60.63;27.17;;;9.80;61.20;;;;;;5025681;28;20079;-71
2021/01/20 11:01:10;;;;;;;79.20;32.97;;;9.90;61.20;;;;;;5036819;28;20434;-71
2021/01/20 11:03:38;;;;;;;165.93;57.25;;;9.90;61.20;;;;;;5036265;28;20025;-72
2021/01/20 11:06:04;;;;;;;143.70;51.90;;;9.80;60.40;;;;;;5043950;28;20025;-71
2021/01/20 11:08:30;;;;;;;176.27;61.85;;;9.80;60.50;;;;;;5052943;28;20489;-72
2021/01/20 11:10:56;;;;;;;140.00;51.20;;;9.80;60.40;;;;;;5060215;28;20095;-71
2021/01/20 11:13:22;;;;;;;152.55;53.42;;;9.70;61.00;;;;;;5075503;28;20025;-72
2021/01/20 11:15:47;;;;;;;178.52;58.88;;;9.80;62.30;;;;;;5057537;28;20105;-71
2021/01/20 11:18:15;;;;;;;168.60;62.40;;;9.90;61.50;;;;;;5075401;28;20489;-71
2021/01/20 11:20:43;;;;;;;164.48;57.78;;;9.90;61.50;;;;;;5075265;28;20178;-71
2021/01/20 11:23:12;;;;;;;154.77;55.17;;;9.90;61.40;;;;;;5063888;28;20057;-72
2021/01/20 11:25:45;;;;;;;147.23;53.83;;;10.00;61.50;;;;;;5054115;28;20025;-71
2021/01/20 11:28:11;;;;;;;150.23;54.20;;;10.10;61.60;;;;;;5037163;28;20021;-72
2021/01/20 11:30:37;;;;;;;146.63;52.50;;;10.10;60.60;;;;;;5055014;28;20021;-71
2021/01/20 11:33:03;;;;;;;122.78;46.67;;;10.20;60.40;;;;;;5048536;28;20045;-71
2021/01/20 11:35:29;;;;;;;118.18;44.92;;;10.20;60.40;;;;;;5052860;28;20421;-71
2021/01/20 11:37:56;;;;;;;123.82;47.28;;;10.20;60.50;;;;;;5058826;28;20367;-71
2021/01/20 11:40:26;;;;;;;133.30;50.53;;;10.30;60.50;;;;;;5075399;28;20024;-71
2021/01/20 11:42:57;;;;;;;139.95;52.20;;;10.40;60.50;;;;;;5050802;28;20060;-72
2021/01/20 11:45:34;;;;;;;158.30;55.80;;;10.40;60.60;;;;;;5051744;28;20017;-72
2021/01/20 11:48:00;;;;;;;176.45;58.75;;;10.40;60.20;;;;;;5030962;28;20022;-71
2021/01/20 11:50:26;;;;;;;178.05;63.60;;;10.50;60.50;;;;;;5036910;28;20385;-71
2021/01/20 11:52:53;;;;;;;190.68;65.80;;;10.50;59.90;;;;;;5054777;28;20029;-71
2021/01/20 11:55:20;;;;;;;170.20;62.35;;;10.60;59.80;;;;;;5074557;28;20450;-71
2021/01/20 11:57:46;;;;;;;177.68;62.92;;;10.60;59.70;;;;;;5074659;28;20027;-71
2021/01/20 12:00:14;;;;;;;200.15;68.03;;;10.60;59.90;;;;;;5072066;28;20474;-70
2021/01/20 12:02:40;;;;;;;194.32;67.45;;;10.70;59.80;;;;;;5029694;28;20041;-71
2021/01/20 12:05:08;;;;;;;194.38;65.47;;;10.70;59.80;;;;;;5053403;28;20027;-71
2021/01/20 12:07:38;;;;;;;192.57;64.45;;;10.80;59.80;;;;;;5036701;28;20108;-71
2021/01/20 12:10:05;;;;;;;175.23;61.83;;;10.80;59.70;;;;;;5054504;28;20060;-71
2021/01/20 12:12:31;;;;;;;179.75;60.78;;;10.90;59.60;;;;;;5039621;28;20030;-72
2021/01/20 12:14:57;;;;;;;169.38;59.45;;;10.90;59.50;;;;;;5054350;28;20025;-71
2021/01/20 12:17:23;;;;;;;208.68;70.13;;;10.90;59.50;;;;;;5048005;28;20037;-71
2021/01/20 12:19:49;;;;;;;215.80;74.22;;;10.90;58.90;;;;;;5074247;28;20055;-71
2021/01/20 12:22:15;;;;;;;183.00;65.72;;;10.90;58.50;;;;;;5059689;28;20029;-71
2021/01/20 12:24:41;;;;;;;191.60;69.82;;;10.80;58.30;;;;;;5049135;28;20479;-71
2021/01/20 12:27:07;;;;;;;182.95;66.00;;;10.80;58.10;;;;;;5051550;28;20504;-71
2021/01/20 12:29:32;;;;;;;179.70;64.65;;;10.70;58.20;;;;;;5047129;28;20025;-72
2021/01/20 12:31:58;;;;;;;176.27;66.72;;;10.70;58.30;;;;;;5025776;28;20418;-71
2021/01/20 12:34:24;;;;;;;185.23;65.97;;;10.70;58.30;;;;;;5043173;28;20033;-72
2021/01/20 12:36:50;;;;;;;160.63;56.97;;;10.60;58.40;;;;;;5054273;28;20024;-71
2021/01/20 12:39:16;;;;;;;135.90;53.60;;;10.60;58.40;;;;;;5049171;28;20033;-72
2021/01/20 12:41:42;;;;;;;138.30;51.13;;;10.60;58.70;;;;;;5054220;28;20048;-72
2021/01/20 12:44:08;;;;;;;116.25;45.45;;;10.60;58.50;;;;;;5054021;28;20025;-72
2021/01/20 12:46:34;;;;;;;98.70;40.05;;;10.60;58.70;;;;;;5053834;28;20074;-72